createdAt,value
2018-07-13T00:02:20.085Z,99.40
2018-07-13T00:04:48.396Z,99.20
2018-07-13T00:07:16.754Z,99.00
2018-07-13T00:09:45.091Z,98.90
2018-07-13T00:12:13.444Z,98.90
2018-07-13T00:14:56.699Z,98.80
2018-07-13T00:17:25.036Z,98.70
2018-07-13T00:19:53.339Z,98.50
2018-07-13T00:22:21.658Z,98.60
2018-07-13T00:24:49.966Z,98.90
2018-07-13T00:27:18.324Z,99.30
2018-07-13T00:29:46.640Z,99.50
2018-07-13T00:32:14.957Z,99.60
2018-07-13T00:34:43.303Z,99.60
2018-07-13T00:37:11.917Z,99.60
2018-07-13T00:39:40.253Z,99.60
2018-07-13T00:42:08.612Z,99.70
2018-07-13T00:44:36.940Z,99.60
2018-07-13T00:47:05.271Z,99.80
2018-07-13T00:49:33.700Z,99.90
2018-07-13T00:52:02.079Z,99.80
2018-07-13T00:54:30.384Z,99.80
2018-07-13T00:56:58.700Z,99.90
2018-07-13T00:59:27.003Z,99.90
2018-07-13T01:01:55.324Z,99.90
2018-07-13T01:04:23.649Z,99.90
2018-07-13T01:06:52.099Z,99.90
2018-07-13T01:09:20.441Z,99.90
2018-07-13T01:11:48.784Z,99.90
2018-07-13T01:14:17.123Z,99.90
2018-07-13T01:16:45.449Z,99.90
2018-07-13T01:19:13.769Z,99.90
2018-07-13T01:21:42.103Z,99.90
2018-07-13T01:24:10.509Z,99.90
2018-07-13T01:26:38.829Z,99.90
2018-07-13T01:29:07.144Z,99.90
2018-07-13T01:31:35.532Z,99.90
2018-07-13T01:34:03.863Z,99.90
2018-07-13T01:36:32.188Z,99.90
2018-07-13T01:39:00.503Z,99.90
2018-07-13T01:41:28.819Z,99.90
2018-07-13T01:43:57.116Z,99.90
2018-07-13T01:46:26.049Z,99.90
2018-07-13T01:48:54.364Z,99.90
2018-07-13T01:51:22.665Z,99.90
2018-07-13T01:53:50.979Z,99.90
2018-07-13T01:56:19.324Z,99.90
2018-07-13T01:58:47.889Z,99.90
2018-07-13T02:01:16.228Z,99.90
2018-07-13T02:03:45.195Z,99.90
2018-07-13T02:06:13.516Z,99.90
2018-07-13T02:08:41.829Z,99.90
2018-07-13T02:11:10.193Z,99.90
2018-07-13T02:13:38.532Z,99.90
2018-07-13T02:16:06.896Z,99.90
2018-07-13T02:18:35.201Z,99.90
2018-07-13T02:21:03.524Z,99.90
2018-07-13T02:23:31.888Z,99.90
2018-07-13T02:26:00.256Z,99.90
2018-07-13T02:28:28.564Z,99.90
2018-07-13T02:30:56.884Z,99.90
2018-07-13T02:33:25.218Z,99.90
2018-07-13T02:35:53.512Z,99.90
2018-07-13T02:38:22.609Z,99.90
2018-07-13T02:40:50.916Z,99.90
2018-07-13T02:43:19.235Z,99.90
2018-07-13T02:45:47.536Z,99.90
2018-07-13T02:48:15.856Z,99.90
2018-07-13T02:50:44.169Z,99.90
2018-07-13T02:53:12.508Z,99.90
2018-07-13T02:55:40.808Z,99.90
2018-07-13T02:58:09.133Z,99.90
2018-07-13T03:00:37.489Z,99.90
2018-07-13T03:03:05.896Z,99.90
2018-07-13T03:05:34.232Z,99.90
2018-07-13T03:08:03.400Z,99.90
2018-07-13T03:10:31.774Z,99.90
2018-07-13T03:13:00.068Z,99.90
2018-07-13T03:15:28.384Z,99.90
2018-07-13T03:17:56.694Z,99.90
2018-07-13T03:20:25.035Z,99.90
2018-07-13T03:22:53.445Z,99.90
2018-07-13T03:25:21.791Z,99.90
2018-07-13T03:27:50.095Z,99.90
2018-07-13T03:30:18.411Z,99.90
2018-07-13T03:32:46.743Z,99.90
2018-07-13T03:35:15.127Z,99.90
2018-07-13T03:37:44.428Z,99.90
2018-07-13T03:40:12.804Z,99.90
2018-07-13T03:42:41.156Z,99.90
2018-07-13T03:45:09.468Z,99.90
2018-07-13T03:47:37.787Z,99.90
2018-07-13T03:50:06.812Z,99.90
2018-07-13T03:52:35.136Z,99.90
2018-07-13T03:55:03.813Z,99.90
2018-07-13T03:57:32.157Z,99.90
2018-07-13T04:00:00.516Z,99.90
2018-07-13T04:02:33.008Z,99.90
2018-07-13T04:05:01.735Z,99.90
2018-07-13T04:07:30.070Z,99.90
2018-07-13T04:09:58.400Z,99.90
2018-07-13T04:12:26.730Z,99.90
2018-07-13T04:14:55.046Z,99.90
2018-07-13T04:17:23.380Z,99.90
2018-07-13T04:19:51.704Z,99.90
2018-07-13T04:22:20.080Z,99.90
2018-07-13T04:24:48.519Z,99.90
2018-07-13T04:27:16.915Z,99.90
2018-07-13T04:29:46.324Z,99.90
2018-07-13T04:32:14.754Z,99.90
2018-07-13T04:34:43.233Z,99.90
2018-07-13T04:37:11.648Z,99.90
2018-07-13T04:39:40.395Z,99.90
2018-07-13T04:42:09.148Z,99.90
2018-07-13T04:44:37.488Z,99.90
2018-07-13T04:47:06.748Z,99.90
2018-07-13T04:49:35.190Z,99.90
2018-07-13T04:52:03.557Z,99.90
2018-07-13T04:54:32.108Z,99.90
2018-07-13T04:57:00.597Z,99.90
2018-07-13T04:59:28.999Z,99.90
2018-07-13T05:01:57.416Z,99.90
2018-07-13T05:04:25.799Z,99.90
2018-07-13T05:06:54.192Z,99.90
2018-07-13T05:09:22.620Z,99.90
2018-07-13T05:11:51.044Z,99.90
2018-07-13T05:14:19.404Z,99.90
2018-07-13T05:16:47.790Z,99.90
2018-07-13T05:19:16.116Z,99.90
2018-07-13T05:21:44.489Z,99.90
2018-07-13T05:24:12.893Z,99.90
2018-07-13T05:26:41.304Z,99.90
2018-07-13T05:29:09.732Z,99.90
2018-07-13T05:31:38.385Z,99.90
2018-07-13T05:34:06.855Z,99.90
2018-07-13T05:36:35.362Z,99.90
2018-07-13T05:39:04.533Z,99.90
2018-07-13T05:41:32.899Z,99.90
2018-07-13T05:44:01.268Z,99.90
2018-07-13T05:46:29.745Z,99.90
2018-07-13T05:48:58.181Z,99.90
2018-07-13T05:51:26.572Z,99.90
2018-07-13T05:53:54.923Z,99.90
2018-07-13T05:56:23.431Z,99.90
2018-07-13T05:58:51.995Z,99.90
2018-07-13T06:01:20.423Z,99.90
2018-07-13T06:03:49.055Z,99.90
2018-07-13T06:06:17.715Z,99.90
2018-07-13T06:08:46.154Z,99.90
2018-07-13T06:11:14.620Z,99.90
2018-07-13T06:13:42.943Z,99.90
2018-07-13T06:16:11.486Z,99.90
2018-07-13T06:18:39.808Z,99.90
2018-07-13T06:21:08.158Z,99.90
2018-07-13T06:23:36.512Z,99.90
2018-07-13T06:26:04.842Z,99.90
2018-07-13T06:28:33.180Z,99.90
2018-07-13T06:31:01.556Z,99.90
2018-07-13T06:33:29.964Z,99.90
2018-07-13T06:35:58.385Z,99.90
2018-07-13T06:38:26.752Z,99.90
2018-07-13T06:40:55.164Z,99.90
2018-07-13T06:43:23.512Z,99.90
2018-07-13T06:45:51.888Z,99.90
2018-07-13T06:48:20.236Z,99.90
2018-07-13T06:50:48.619Z,99.90
2018-07-13T06:53:17.260Z,99.90
2018-07-13T06:55:45.681Z,99.90
2018-07-13T06:58:25.328Z,99.90
2018-07-13T07:00:55.968Z,99.70
2018-07-13T07:03:25.063Z,99.60
2018-07-13T07:05:54.156Z,99.10
2018-07-13T07:08:23.309Z,99.40
2018-07-13T07:10:51.728Z,99.00
2018-07-13T07:13:26.152Z,98.80
2018-07-13T07:15:54.723Z,99.10
2018-07-13T07:18:23.107Z,98.50
2018-07-13T07:20:51.487Z,98.20
2018-07-13T07:23:19.867Z,98.20
2018-07-13T07:25:48.288Z,98.00
2018-07-13T07:28:16.626Z,98.10
2018-07-13T07:30:45.108Z,96.70
2018-07-13T07:33:13.355Z,97.10
2018-07-13T07:35:41.660Z,97.30
2018-07-13T07:38:09.988Z,96.90
2018-07-13T07:40:38.361Z,97.20
2018-07-13T07:43:06.703Z,96.80
2018-07-13T07:45:35.049Z,96.90
2018-07-13T07:48:03.423Z,96.70
2018-07-13T07:50:31.736Z,96.50
2018-07-13T07:53:00.116Z,96.50
2018-07-13T07:55:28.436Z,95.70
2018-07-13T07:57:56.768Z,95.80
2018-07-13T08:00:25.146Z,95.60
2018-07-13T08:02:53.636Z,94.50
2018-07-13T08:05:22.067Z,95.00
2018-07-13T08:07:50.372Z,93.90
2018-07-13T08:10:18.725Z,94.30
2018-07-13T08:12:47.069Z,94.30
2018-07-13T08:15:15.409Z,93.40
2018-07-13T08:17:43.728Z,93.80
2018-07-13T08:20:15.408Z,93.80
2018-07-13T08:22:49.223Z,93.80
2018-07-13T08:25:17.627Z,93.60
2018-07-13T08:27:49.104Z,93.20
2018-07-13T08:30:19.340Z,91.60
2018-07-13T08:32:48.113Z,92.80
2018-07-13T08:35:17.044Z,92.50
2018-07-13T08:37:46.095Z,91.70
2018-07-13T08:40:14.404Z,91.30
2018-07-13T08:42:43.016Z,91.30
2018-07-13T08:45:11.572Z,92.60
2018-07-13T08:47:39.932Z,92.00
2018-07-13T08:50:08.671Z,91.50
2018-07-13T08:52:37.055Z,91.20
2018-07-13T08:55:08.855Z,91.40
2018-07-13T08:57:37.364Z,90.00
2018-07-13T09:00:06.092Z,91.10
2018-07-13T09:02:34.492Z,90.60
2018-07-13T09:05:03.808Z,90.00
2018-07-13T09:07:33.647Z,90.30
2018-07-13T09:10:01.987Z,84.80
2018-07-13T09:12:30.779Z,84.10
2018-07-13T09:14:59.168Z,85.30
2018-07-13T09:17:27.580Z,86.50
2018-07-13T09:19:55.936Z,87.40
2018-07-13T09:22:24.248Z,84.70
2018-07-13T09:24:52.588Z,85.00
2018-07-13T09:27:21.094Z,86.60
2018-07-13T09:29:49.439Z,85.50
2018-07-13T09:32:18.140Z,83.30
2018-07-13T09:34:46.788Z,85.90
2018-07-13T09:37:15.212Z,81.40
2018-07-13T09:39:43.569Z,81.30
2018-07-13T09:42:12.136Z,79.70
2018-07-13T09:44:41.023Z,79.40
2018-07-13T09:47:09.352Z,81.30
2018-07-13T09:49:37.684Z,82.10
2018-07-13T09:52:06.055Z,82.30
2018-07-13T09:54:34.409Z,82.00
2018-07-13T09:57:02.778Z,81.90
2018-07-13T09:59:31.148Z,78.00
2018-07-13T10:01:59.528Z,75.50
2018-07-13T10:04:27.908Z,79.90
2018-07-13T10:06:56.346Z,74.10
2018-07-13T10:09:24.644Z,73.30
2018-07-13T10:11:52.995Z,76.90
2018-07-13T10:14:21.372Z,75.70
2018-07-13T10:16:49.743Z,75.50
2018-07-13T10:19:18.091Z,71.40
2018-07-13T10:21:47.691Z,72.80
2018-07-13T10:24:16.903Z,71.00
2018-07-13T10:26:45.294Z,69.70
2018-07-13T10:29:18.127Z,70.10
2018-07-13T10:31:46.382Z,69.90
2018-07-13T10:34:16.259Z,68.00
2018-07-13T10:36:47.665Z,68.40
2018-07-13T10:39:16.018Z,68.30
2018-07-13T10:41:44.350Z,68.00
2018-07-13T10:44:12.675Z,66.60
2018-07-13T10:46:41.058Z,66.30
2018-07-13T10:49:09.376Z,60.20
2018-07-13T10:51:37.758Z,65.60
2018-07-13T10:54:06.011Z,62.80
2018-07-13T10:56:34.357Z,61.20
2018-07-13T10:59:03.260Z,59.90
2018-07-13T11:01:31.587Z,60.20
2018-07-13T11:04:00.108Z,60.20
2018-07-13T11:06:28.470Z,59.00
2018-07-13T11:08:56.800Z,58.00
2018-07-13T11:11:25.108Z,60.40
2018-07-13T11:13:53.498Z,62.30
2018-07-13T11:16:21.708Z,59.90
2018-07-13T11:18:50.037Z,60.60
2018-07-13T11:21:18.355Z,59.50
2018-07-13T11:23:46.657Z,58.60
2018-07-13T11:26:14.976Z,56.80
2018-07-13T11:28:43.280Z,55.10
2018-07-13T11:31:11.597Z,56.30
2018-07-13T11:33:39.908Z,54.50
2018-07-13T11:36:08.216Z,57.50
2018-07-13T11:38:36.509Z,57.80
2018-07-13T11:41:04.857Z,56.50
2018-07-13T11:43:33.200Z,54.70
2018-07-13T11:46:01.620Z,55.80
2018-07-13T11:48:30.324Z,51.90
2018-07-13T11:50:59.023Z,54.50
2018-07-13T11:53:27.325Z,52.50
2018-07-13T11:55:55.662Z,49.30
2018-07-13T11:58:23.964Z,52.30
2018-07-13T12:00:52.292Z,51.20
2018-07-13T12:03:20.608Z,47.90
2018-07-13T12:05:49.428Z,51.00
2018-07-13T12:08:17.722Z,49.30
2018-07-13T12:10:46.040Z,47.30
2018-07-13T12:13:14.338Z,44.50
2018-07-13T12:15:42.685Z,47.10
2018-07-13T12:18:11.055Z,47.00
2018-07-13T12:20:39.675Z,47.90
2018-07-13T12:23:08.045Z,46.90
2018-07-13T12:25:37.060Z,46.50
2018-07-13T12:28:06.195Z,47.70
2018-07-13T12:30:34.524Z,48.80
2018-07-13T12:33:03.226Z,47.30
2018-07-13T12:35:32.167Z,47.50
2018-07-13T12:38:00.803Z,49.00
2018-07-13T12:40:29.064Z,47.60
2018-07-13T12:42:58.388Z,47.30
2018-07-13T12:45:26.740Z,46.20
2018-07-13T12:47:55.072Z,46.70
2018-07-13T12:50:23.496Z,46.30
2018-07-13T12:52:51.804Z,45.00
2018-07-13T12:55:20.109Z,44.00
2018-07-13T12:57:48.424Z,45.90
2018-07-13T13:00:17.304Z,47.60
2018-07-13T13:02:45.645Z,44.50
2018-07-13T13:05:13.956Z,47.40
2018-07-13T13:07:42.876Z,47.90
2018-07-13T13:10:11.171Z,44.30
2018-07-13T13:12:39.525Z,42.50
2018-07-13T13:15:08.080Z,44.70
2018-07-13T13:17:36.400Z,43.60
2018-07-13T13:20:04.752Z,44.50
2018-07-13T13:22:33.128Z,42.90
2018-07-13T13:25:02.069Z,44.40
2018-07-13T13:27:30.420Z,44.70
2018-07-13T13:29:58.739Z,46.00
2018-07-13T13:32:27.364Z,46.90
2018-07-13T13:34:55.878Z,43.60
2018-07-13T13:37:24.856Z,42.90
2018-07-13T13:39:53.319Z,42.00
2018-07-13T13:42:21.809Z,44.30
2018-07-13T13:44:50.128Z,44.00
2018-07-13T13:47:18.440Z,42.90
2018-07-13T13:49:46.770Z,41.60
2018-07-13T13:52:16.252Z,42.40
2018-07-13T13:54:44.572Z,39.90
2018-07-13T13:57:12.870Z,41.40
2018-07-13T13:59:41.250Z,39.00
2018-07-13T14:02:09.556Z,40.30
2018-07-13T14:04:37.892Z,42.00
2018-07-13T14:07:06.377Z,41.70
2018-07-13T14:09:34.716Z,41.50
2018-07-13T14:12:03.136Z,39.70
2018-07-13T14:14:31.596Z,39.40
2018-07-13T14:16:59.836Z,40.10
2018-07-13T14:19:28.220Z,38.00
2018-07-13T14:21:56.544Z,39.10
2018-07-13T14:24:24.932Z,39.40
2018-07-13T14:26:53.388Z,38.10
2018-07-13T14:29:21.714Z,36.30
2018-07-13T14:31:50.014Z,35.10
2018-07-13T14:34:18.468Z,36.10
2018-07-13T14:36:46.800Z,40.20
2018-07-13T14:39:15.106Z,37.90
2018-07-13T14:41:43.400Z,35.10
2018-07-13T14:44:11.732Z,37.90
2018-07-13T14:46:40.090Z,35.90
2018-07-13T14:49:08.599Z,36.80
2018-07-13T14:51:36.937Z,36.40
2018-07-13T14:54:05.782Z,36.60
2018-07-13T14:56:34.212Z,35.40
2018-07-13T14:59:02.535Z,37.00
2018-07-13T15:01:30.970Z,32.00
2018-07-13T15:03:59.352Z,32.10
2018-07-13T15:06:27.734Z,34.60
2018-07-13T15:08:55.949Z,34.70
2018-07-13T15:11:24.284Z,35.00
2018-07-13T15:13:52.601Z,35.10
2018-07-13T15:16:20.912Z,34.20
2018-07-13T15:18:49.268Z,32.80
2018-07-13T15:21:18.217Z,34.70
2018-07-13T15:23:46.520Z,33.10
2018-07-13T15:26:14.850Z,32.60
2018-07-13T15:28:43.205Z,32.60
2018-07-13T15:31:11.522Z,34.00
2018-07-13T15:33:39.891Z,36.70
2018-07-13T15:36:08.187Z,35.70
2018-07-13T15:38:36.541Z,33.60
2018-07-13T15:41:04.878Z,35.70
2018-07-13T15:43:33.244Z,34.40
2018-07-13T15:46:01.582Z,35.60
2018-07-13T15:48:29.894Z,33.10
2018-07-13T15:50:58.192Z,33.90
2018-07-13T15:53:26.560Z,34.00
2018-07-13T15:55:58.334Z,33.20
2018-07-13T15:58:27.271Z,32.40
2018-07-13T16:00:55.836Z,32.70
2018-07-13T16:03:24.405Z,33.30
2018-07-13T16:05:52.883Z,33.70
2018-07-13T16:08:21.296Z,33.30
2018-07-13T16:10:49.673Z,34.40
2018-07-13T16:13:17.928Z,33.60
2018-07-13T16:15:46.244Z,33.30
2018-07-13T16:18:14.608Z,33.30
2018-07-13T16:20:42.932Z,33.60
2018-07-13T16:23:11.308Z,34.40
2018-07-13T16:25:39.775Z,35.30
2018-07-13T16:28:08.204Z,34.00
2018-07-13T16:30:36.467Z,35.80
2018-07-13T16:33:05.143Z,34.50
2018-07-13T16:35:33.466Z,34.10
2018-07-13T16:38:01.812Z,36.10
2018-07-13T16:40:30.129Z,34.70
2018-07-13T16:42:58.468Z,33.40
2018-07-13T16:45:26.856Z,34.30
2018-07-13T16:47:55.196Z,37.70
2018-07-13T16:50:23.507Z,37.80
2018-07-13T16:52:52.311Z,35.60
2018-07-13T16:55:20.679Z,35.40
2018-07-13T16:57:48.972Z,35.90
2018-07-13T17:00:17.302Z,36.40
2018-07-13T17:02:45.604Z,38.10
2018-07-13T17:05:14.231Z,39.40
2018-07-13T17:07:42.527Z,38.70
2018-07-13T17:10:10.861Z,37.80
2018-07-13T17:12:39.184Z,40.30
2018-07-13T17:15:07.620Z,37.60
2018-07-13T17:17:35.972Z,37.50
2018-07-13T17:20:04.408Z,37.00
2018-07-13T17:22:33.169Z,37.00
2018-07-13T17:25:02.042Z,36.90
2018-07-13T17:27:30.895Z,40.00
2018-07-13T17:29:59.208Z,37.50
2018-07-13T17:32:27.844Z,37.20
2018-07-13T17:34:56.444Z,39.60
2018-07-13T17:37:32.980Z,38.00
2018-07-13T17:40:01.422Z,38.80
2018-07-13T17:42:29.809Z,39.00
2018-07-13T17:44:58.117Z,38.60
2018-07-13T17:47:26.554Z,38.10
2018-07-13T17:49:54.893Z,38.10
2018-07-13T17:52:23.341Z,38.80
2018-07-13T17:54:51.696Z,40.40
2018-07-13T17:57:20.138Z,41.10
2018-07-13T17:59:48.448Z,41.00
2018-07-13T18:02:16.748Z,41.10
2018-07-13T18:04:45.100Z,40.70
2018-07-13T18:07:13.642Z,40.10
2018-07-13T18:09:42.226Z,40.50
2018-07-13T18:12:11.559Z,42.00
2018-07-13T18:14:39.917Z,42.10
2018-07-13T18:17:08.235Z,43.10
2018-07-13T18:19:36.676Z,44.70
2018-07-13T18:22:04.979Z,45.80
2018-07-13T18:24:33.964Z,45.90
2018-07-13T18:27:02.332Z,45.40
2018-07-13T18:29:30.644Z,45.20
2018-07-13T18:31:59.017Z,47.40
2018-07-13T18:34:27.332Z,47.00
2018-07-13T18:36:55.665Z,45.10
2018-07-13T18:39:24.093Z,44.50
2018-07-13T18:41:52.504Z,45.90
2018-07-13T18:44:20.851Z,46.40
2018-07-13T18:46:49.192Z,47.00
2018-07-13T18:49:18.260Z,47.60
2018-07-13T18:51:46.697Z,48.40
2018-07-13T18:54:15.150Z,48.60
2018-07-13T18:56:43.477Z,48.90
2018-07-13T18:59:11.889Z,49.10
2018-07-13T19:01:40.217Z,49.40
2018-07-13T19:04:08.686Z,50.20
2018-07-13T19:06:37.229Z,51.10
2018-07-13T19:09:06.580Z,52.20
2018-07-13T19:11:34.909Z,53.20
2018-07-13T19:14:03.445Z,53.80
2018-07-13T19:16:31.792Z,54.00
2018-07-13T19:19:00.864Z,54.30
2018-07-13T19:21:29.387Z,55.10
2018-07-13T19:23:57.728Z,54.60
2018-07-13T19:26:26.113Z,55.20
2018-07-13T19:28:54.453Z,54.90
2018-07-13T19:31:22.899Z,55.50
2018-07-13T19:33:51.247Z,56.30
2018-07-13T19:36:19.596Z,56.60
2018-07-13T19:38:47.947Z,57.10
2018-07-13T19:41:16.356Z,57.70
2018-07-13T19:43:44.716Z,58.50
2018-07-13T19:46:13.039Z,59.20
2018-07-13T19:48:42.005Z,59.10
2018-07-13T19:51:10.466Z,59.80
2018-07-13T19:53:38.889Z,60.00
2018-07-13T19:56:07.436Z,60.60
2018-07-13T19:58:35.846Z,63.40
2018-07-13T20:01:04.260Z,65.90
2018-07-13T20:03:32.605Z,65.40
2018-07-13T20:06:01.024Z,65.50
2018-07-13T20:08:29.430Z,67.30
2018-07-13T20:10:58.355Z,65.40
2018-07-13T20:13:26.737Z,65.90
2018-07-13T20:15:55.133Z,66.40
2018-07-13T20:18:23.758Z,67.60
2018-07-13T20:20:52.314Z,68.10
2018-07-13T20:23:20.670Z,68.80
2018-07-13T20:25:48.973Z,68.20
2018-07-13T20:28:17.340Z,66.40
2018-07-13T20:30:45.700Z,67.40
2018-07-13T20:33:14.101Z,66.80
2018-07-13T20:35:42.653Z,66.70
2018-07-13T20:38:11.012Z,67.40
2018-07-13T20:40:39.346Z,66.80
2018-07-13T20:43:07.768Z,67.20
2018-07-13T20:45:36.075Z,67.00
2018-07-13T20:48:04.580Z,67.20
2018-07-13T20:50:33.248Z,68.30
2018-07-13T20:53:02.808Z,67.90
2018-07-13T20:55:31.212Z,67.10
2018-07-13T20:57:59.509Z,67.20
2018-07-13T21:00:28.104Z,67.50
2018-07-13T21:02:56.461Z,67.80
2018-07-13T21:05:24.988Z,69.00
2018-07-13T21:07:53.332Z,69.80
2018-07-13T21:10:21.787Z,72.00
2018-07-13T21:12:50.130Z,73.90
2018-07-13T21:15:18.445Z,74.90
2018-07-13T21:17:46.756Z,75.60
2018-07-13T21:20:15.184Z,76.70
2018-07-13T21:22:43.574Z,76.00
2018-07-13T21:25:11.886Z,75.80
2018-07-13T21:27:40.248Z,74.90
2018-07-13T21:30:08.796Z,74.90
2018-07-13T21:32:37.167Z,74.80
2018-07-13T21:35:06.117Z,74.70
2018-07-13T21:37:34.566Z,74.30
2018-07-13T21:40:02.947Z,74.40
2018-07-13T21:42:31.287Z,74.30
2018-07-13T21:45:01.284Z,74.70
2018-07-13T21:47:29.620Z,75.10
2018-07-13T21:49:57.950Z,75.00
2018-07-13T21:52:26.354Z,75.40
2018-07-13T21:54:54.960Z,76.30
2018-07-13T21:57:23.309Z,76.80
2018-07-13T21:59:51.680Z,77.90
2018-07-13T22:02:20.024Z,78.10
2018-07-13T22:04:48.323Z,78.90
2018-07-13T22:07:16.644Z,80.00
2018-07-13T22:09:47.764Z,81.30
2018-07-13T22:12:16.152Z,82.00
2018-07-13T22:14:44.483Z,82.00
2018-07-13T22:17:13.476Z,81.50
2018-07-13T22:19:42.457Z,81.30
2018-07-13T22:22:11.372Z,80.90
2018-07-13T22:24:39.739Z,81.30
2018-07-13T22:27:08.052Z,81.50
2018-07-13T22:29:36.365Z,81.90
2018-07-13T22:32:04.890Z,82.60
2018-07-13T22:34:34.692Z,83.20
2018-07-13T22:37:03.038Z,83.90
2018-07-13T22:39:31.485Z,84.60
2018-07-13T22:41:59.783Z,85.20
2018-07-13T22:44:28.112Z,86.10
2018-07-13T22:46:56.484Z,87.40
2018-07-13T22:49:24.800Z,88.50
2018-07-13T22:51:53.105Z,88.90
2018-07-13T22:54:21.448Z,88.60
2018-07-13T22:56:49.768Z,88.50
2018-07-13T22:59:18.084Z,88.90
2018-07-13T23:01:46.400Z,89.20
2018-07-13T23:04:14.744Z,89.80
2018-07-13T23:06:43.652Z,90.00
2018-07-13T23:09:12.032Z,90.20
2018-07-13T23:11:40.357Z,90.40
2018-07-13T23:17:00.632Z,90.10
2018-07-13T23:19:28.955Z,89.60
2018-07-13T23:21:57.292Z,89.20
2018-07-13T23:24:25.690Z,88.80
2018-07-13T23:26:54.617Z,88.80
2018-07-13T23:29:22.943Z,89.10
2018-07-13T23:31:51.248Z,89.00
2018-07-13T23:34:19.602Z,89.40
2018-07-13T23:36:47.924Z,89.60
2018-07-13T23:39:16.256Z,89.90
2018-07-13T23:41:44.551Z,90.00
2018-07-13T23:44:12.892Z,90.10
2018-07-13T23:46:41.215Z,90.10
2018-07-13T23:49:10.291Z,90.00
2018-07-13T23:51:38.600Z,90.30
2018-07-13T23:54:06.928Z,90.30
2018-07-13T23:56:35.255Z,90.30
2018-07-13T23:59:03.588Z,90.30
